createdAt,value
2018-07-12T00:00:30.512Z,15.84
2018-07-12T00:01:30.405Z,15.91
2018-07-12T00:02:30.301Z,15.97
2018-07-12T00:03:30.209Z,15.90
2018-07-12T00:04:30.105Z,15.88
2018-07-12T00:05:30.019Z,15.88
2018-07-12T00:06:29.915Z,15.94
2018-07-12T00:07:29.821Z,15.91
2018-07-12T00:08:30.018Z,15.92
2018-07-12T00:09:29.643Z,15.88
2018-07-12T00:10:29.526Z,15.88
2018-07-12T00:11:29.438Z,15.88
2018-07-12T00:12:29.336Z,15.86
2018-07-12T00:13:29.227Z,15.94
2018-07-12T00:14:29.135Z,15.88
2018-07-12T00:15:29.036Z,15.94
2018-07-12T00:16:28.944Z,15.80
2018-07-12T00:17:28.838Z,15.86
2018-07-12T00:18:28.995Z,15.86
2018-07-12T00:19:28.644Z,15.92
2018-07-12T00:20:28.554Z,15.80
2018-07-12T00:21:28.454Z,15.86
2018-07-12T00:22:28.362Z,15.82
2018-07-12T00:23:28.259Z,15.90
2018-07-12T00:24:28.169Z,15.82
2018-07-12T00:25:28.062Z,15.80
2018-07-12T00:26:27.958Z,15.82
2018-07-12T00:27:27.865Z,15.82
2018-07-12T00:28:27.761Z,15.82
2018-07-12T00:29:27.676Z,15.79
2018-07-12T00:30:27.572Z,15.83
2018-07-12T00:31:27.479Z,15.80
2018-07-12T00:32:27.375Z,15.83
2018-07-12T00:33:27.292Z,15.83
2018-07-12T00:34:27.187Z,15.83
2018-07-12T00:35:27.093Z,15.83
2018-07-12T00:36:26.991Z,15.77
2018-07-12T00:37:26.884Z,15.79
2018-07-12T00:38:27.093Z,15.79
2018-07-12T00:39:26.696Z,15.80
2018-07-12T00:40:26.602Z,15.75
2018-07-12T00:41:26.495Z,15.77
2018-07-12T00:42:26.405Z,15.77
2018-07-12T00:43:26.304Z,15.84
2018-07-12T00:44:26.212Z,15.82
2018-07-12T00:45:26.113Z,15.77
2018-07-12T00:46:26.024Z,15.77
2018-07-12T00:47:25.914Z,15.80
2018-07-12T00:48:26.072Z,15.84
2018-07-12T00:49:25.723Z,15.90
2018-07-12T00:50:25.625Z,15.83
2018-07-12T00:51:25.531Z,15.83
2018-07-12T00:52:25.428Z,15.80
2018-07-12T00:53:25.332Z,15.80
2018-07-12T00:54:25.229Z,15.77
2018-07-12T00:55:25.144Z,15.79
2018-07-12T00:56:25.041Z,15.76
2018-07-12T00:57:24.944Z,15.80
2018-07-12T00:58:25.092Z,15.76
2018-07-12T00:59:24.749Z,15.77
2018-07-12T01:00:24.646Z,15.76
2018-07-12T01:01:24.547Z,15.80
2018-07-12T01:02:24.455Z,15.79
2018-07-12T01:03:24.350Z,15.82
2018-07-12T01:04:24.262Z,15.75
2018-07-12T01:05:24.161Z,15.68
2018-07-12T01:06:24.069Z,15.72
2018-07-12T01:07:23.976Z,15.77
2018-07-12T01:08:23.873Z,15.83
2018-07-12T01:09:23.766Z,15.79
2018-07-12T01:10:23.675Z,15.76
2018-07-12T01:11:23.575Z,15.76
2018-07-12T01:12:23.486Z,15.77
2018-07-12T01:13:23.379Z,15.75
2018-07-12T01:14:23.276Z,15.79
2018-07-12T01:15:23.185Z,15.76
2018-07-12T01:16:23.083Z,15.73
2018-07-12T01:17:22.997Z,15.73
2018-07-12T01:18:22.895Z,15.72
2018-07-12T01:19:22.795Z,15.70
2018-07-12T01:20:22.691Z,15.68
2018-07-12T01:21:22.594Z,15.77
2018-07-12T01:22:22.503Z,15.67
2018-07-12T01:23:22.402Z,15.68
2018-07-12T01:24:22.310Z,15.76
2018-07-12T01:25:22.202Z,15.72
2018-07-12T01:26:22.113Z,15.76
2018-07-12T01:27:22.011Z,15.84
2018-07-12T01:28:21.919Z,15.76
2018-07-12T01:29:21.831Z,15.83
2018-07-12T01:30:21.710Z,15.84
2018-07-12T01:31:21.620Z,15.70
2018-07-12T01:32:21.517Z,15.77
2018-07-12T01:33:21.430Z,15.79
2018-07-12T01:34:21.326Z,15.83
2018-07-12T01:35:21.230Z,15.82
2018-07-12T01:36:21.129Z,15.77
2018-07-12T01:37:21.029Z,15.77
2018-07-12T01:38:20.936Z,15.83
2018-07-12T01:39:20.835Z,15.80
2018-07-12T01:40:20.744Z,15.80
2018-07-12T01:41:20.637Z,15.86
2018-07-12T01:42:20.545Z,15.84
2018-07-12T01:43:20.697Z,15.84
2018-07-12T01:44:20.356Z,15.86
2018-07-12T01:45:20.251Z,15.90
2018-07-12T01:46:20.144Z,15.91
2018-07-12T01:47:20.055Z,15.88
2018-07-12T01:48:19.953Z,15.90
2018-07-12T01:49:19.863Z,15.90
2018-07-12T01:50:19.759Z,15.82
2018-07-12T01:51:19.666Z,15.90
2018-07-12T01:52:19.562Z,15.80
2018-07-12T01:53:19.463Z,15.80
2018-07-12T01:54:19.376Z,15.82
2018-07-12T01:55:19.267Z,15.79
2018-07-12T01:56:19.176Z,15.73
2018-07-12T01:57:19.069Z,15.75
2018-07-12T01:58:18.978Z,15.70
2018-07-12T01:59:18.879Z,15.76
2018-07-12T02:00:18.776Z,15.76
2018-07-12T02:01:18.681Z,15.73
2018-07-12T02:02:18.578Z,15.77
2018-07-12T02:03:18.489Z,15.79
2018-07-12T02:04:18.385Z,15.75
2018-07-12T02:05:18.286Z,15.70
2018-07-12T02:06:18.195Z,15.77
2018-07-12T02:07:18.084Z,15.75
2018-07-12T02:08:17.995Z,15.77
2018-07-12T02:09:17.896Z,15.76
2018-07-12T02:10:17.804Z,15.73
2018-07-12T02:11:17.709Z,15.79
2018-07-12T02:12:17.601Z,15.76
2018-07-12T02:13:17.805Z,15.75
2018-07-12T02:14:17.440Z,15.75
2018-07-12T02:15:17.314Z,15.64
2018-07-12T02:16:17.213Z,15.67
2018-07-12T02:17:17.118Z,15.68
2018-07-12T02:18:17.021Z,15.62
2018-07-12T02:19:16.910Z,15.55
2018-07-12T02:20:16.819Z,15.59
2018-07-12T02:21:16.718Z,15.70
2018-07-12T02:22:16.628Z,15.59
2018-07-12T02:23:16.823Z,15.62
2018-07-12T02:24:16.431Z,15.52
2018-07-12T02:25:16.332Z,15.47
2018-07-12T02:26:16.229Z,15.59
2018-07-12T02:27:16.140Z,15.62
2018-07-12T02:28:16.033Z,15.57
2018-07-12T02:29:15.939Z,15.55
2018-07-12T02:30:15.835Z,15.59
2018-07-12T02:31:15.731Z,15.55
2018-07-12T02:32:15.646Z,15.51
2018-07-12T02:33:15.542Z,15.43
2018-07-12T02:34:15.450Z,15.44
2018-07-12T02:35:15.428Z,15.44
2018-07-12T02:36:15.246Z,15.49
2018-07-12T02:37:15.156Z,15.51
2018-07-12T02:38:15.051Z,15.43
2018-07-12T02:39:14.948Z,15.47
2018-07-12T02:40:14.855Z,15.36
2018-07-12T02:41:14.760Z,15.42
2018-07-12T02:42:14.660Z,15.39
2018-07-12T02:43:14.557Z,15.44
2018-07-12T02:44:14.454Z,15.37
2018-07-12T02:45:14.366Z,15.37
2018-07-12T02:46:14.263Z,15.39
2018-07-12T02:47:14.156Z,15.40
2018-07-12T02:48:14.068Z,15.29
2018-07-12T02:49:13.967Z,15.25
2018-07-12T02:50:13.867Z,15.40
2018-07-12T02:51:13.770Z,15.35
2018-07-12T02:52:13.667Z,15.28
2018-07-12T02:53:13.562Z,15.35
2018-07-12T02:54:13.469Z,15.35
2018-07-12T02:55:13.371Z,15.28
2018-07-12T02:56:13.282Z,15.33
2018-07-12T02:57:13.172Z,15.27
2018-07-12T02:58:13.069Z,15.35
2018-07-12T02:59:12.966Z,15.35
2018-07-12T03:00:12.877Z,15.39
2018-07-12T03:01:12.775Z,15.42
2018-07-12T03:02:12.683Z,15.31
2018-07-12T03:03:12.825Z,15.28
2018-07-12T03:04:12.472Z,15.25
2018-07-12T03:05:12.375Z,15.27
2018-07-12T03:06:12.282Z,15.29
2018-07-12T03:07:12.181Z,15.27
2018-07-12T03:08:12.091Z,15.29
2018-07-12T03:09:11.983Z,15.36
2018-07-12T03:10:11.878Z,15.28
2018-07-12T03:11:11.779Z,15.37
2018-07-12T03:12:11.690Z,15.25
2018-07-12T03:13:11.580Z,15.35
2018-07-12T03:14:11.477Z,15.44
2018-07-12T03:15:11.388Z,15.42
2018-07-12T03:16:11.284Z,15.39
2018-07-12T03:17:11.186Z,15.37
2018-07-12T03:18:11.095Z,15.44
2018-07-12T03:19:10.989Z,15.39
2018-07-12T03:20:10.885Z,15.47
2018-07-12T03:21:10.810Z,15.37
2018-07-12T03:22:10.695Z,15.42
2018-07-12T03:23:10.589Z,15.44
2018-07-12T03:24:10.498Z,15.37
2018-07-12T03:25:10.391Z,15.43
2018-07-12T03:26:10.299Z,15.40
2018-07-12T03:27:10.203Z,15.37
2018-07-12T03:28:10.100Z,15.36
2018-07-12T03:29:09.993Z,15.39
2018-07-12T03:30:09.909Z,15.28
2018-07-12T03:31:09.796Z,15.37
2018-07-12T03:32:09.707Z,15.28
2018-07-12T03:33:09.605Z,15.43
2018-07-12T03:34:09.502Z,15.35
2018-07-12T03:35:09.410Z,15.39
2018-07-12T03:36:09.307Z,15.37
2018-07-12T03:37:09.207Z,15.33
2018-07-12T03:38:09.116Z,15.31
2018-07-12T03:39:09.010Z,15.27
2018-07-12T03:40:08.907Z,15.28
2018-07-12T03:41:08.814Z,15.42
2018-07-12T03:42:08.709Z,15.25
2018-07-12T03:43:08.613Z,15.42
2018-07-12T03:44:08.523Z,15.43
2018-07-12T03:45:08.413Z,15.37
2018-07-12T03:46:08.310Z,15.39
2018-07-12T03:47:08.221Z,15.42
2018-07-12T03:48:08.115Z,15.44
2018-07-12T03:49:08.016Z,15.39
2018-07-12T03:50:07.924Z,15.43
2018-07-12T03:51:07.819Z,15.46
2018-07-12T03:52:07.726Z,15.39
2018-07-12T03:53:07.627Z,15.43
2018-07-12T03:54:07.525Z,15.42
2018-07-12T03:55:07.440Z,15.46
2018-07-12T03:56:07.332Z,15.40
2018-07-12T03:57:07.223Z,15.40
2018-07-12T03:58:07.191Z,15.43
2018-07-12T03:59:07.032Z,15.39
2018-07-12T04:00:06.929Z,15.40
2018-07-12T04:01:06.833Z,15.42
2018-07-12T04:02:06.730Z,15.27
2018-07-12T04:03:06.629Z,15.40
2018-07-12T04:04:06.539Z,15.44
2018-07-12T04:05:06.442Z,15.49
2018-07-12T04:06:06.336Z,15.43
2018-07-12T04:07:06.241Z,15.43
2018-07-12T04:08:06.137Z,15.44
2018-07-12T04:09:06.039Z,15.39
2018-07-12T04:10:05.949Z,15.40
2018-07-12T04:11:05.843Z,15.44
2018-07-12T04:12:05.740Z,15.43
2018-07-12T04:13:05.644Z,15.49
2018-07-12T04:14:05.540Z,15.47
2018-07-12T04:15:05.444Z,15.51
2018-07-12T04:16:05.352Z,15.52
2018-07-12T04:17:05.245Z,15.52
2018-07-12T04:18:05.392Z,15.58
2018-07-12T04:19:05.049Z,15.54
2018-07-12T04:20:04.945Z,15.49
2018-07-12T04:21:04.846Z,15.47
2018-07-12T04:22:04.756Z,15.47
2018-07-12T04:23:04.649Z,15.47
2018-07-12T04:24:04.546Z,15.49
2018-07-12T04:25:04.457Z,15.55
2018-07-12T04:26:04.355Z,15.59
2018-07-12T04:27:04.253Z,15.64
2018-07-12T04:28:04.152Z,15.64
2018-07-12T04:29:04.056Z,15.73
2018-07-12T04:30:03.954Z,15.72
2018-07-12T04:31:03.851Z,15.73
2018-07-12T04:32:03.760Z,15.73
2018-07-12T04:33:03.671Z,15.77
2018-07-12T04:34:03.549Z,15.70
2018-07-12T04:35:03.450Z,15.77
2018-07-12T04:36:03.361Z,15.76
2018-07-12T04:37:03.260Z,15.82
2018-07-12T04:38:03.156Z,15.91
2018-07-12T04:39:03.064Z,15.84
2018-07-12T04:40:02.961Z,15.82
2018-07-12T04:41:02.853Z,15.77
2018-07-12T04:42:02.767Z,15.76
2018-07-12T04:43:02.658Z,15.75
2018-07-12T04:44:02.555Z,15.75
2018-07-12T04:45:02.468Z,15.77
2018-07-12T04:46:02.368Z,15.82
2018-07-12T04:47:02.271Z,15.84
2018-07-12T04:48:02.157Z,15.79
2018-07-12T04:49:02.069Z,15.75
2018-07-12T04:50:01.978Z,15.79
2018-07-12T04:51:01.872Z,15.75
2018-07-12T04:52:01.769Z,15.82
2018-07-12T04:53:01.663Z,15.82
2018-07-12T04:54:01.559Z,15.73
2018-07-12T04:55:01.473Z,15.79
2018-07-12T04:56:01.369Z,15.86
2018-07-12T04:57:01.262Z,15.80
2018-07-12T04:58:01.227Z,15.84
2018-07-12T04:59:01.069Z,15.84
2018-07-12T05:00:00.966Z,15.90
2018-07-12T05:01:00.879Z,15.86
2018-07-12T05:02:00.777Z,15.88
2018-07-12T05:03:00.667Z,15.92
2018-07-12T05:04:00.575Z,15.88
2018-07-12T05:05:00.475Z,15.98
2018-07-12T05:06:00.377Z,15.94
2018-07-12T05:07:00.287Z,15.98
2018-07-12T05:08:00.227Z,16.01
2018-07-12T05:09:00.074Z,16.02
2018-07-12T05:09:59.981Z,16.04
2018-07-12T05:10:59.884Z,15.97
2018-07-12T05:11:59.792Z,16.05
2018-07-12T05:12:59.685Z,16.12
2018-07-12T05:13:59.582Z,16.09
2018-07-12T05:14:59.488Z,16.12
2018-07-12T05:15:59.385Z,16.21
2018-07-12T05:16:59.286Z,16.09
2018-07-12T05:17:59.196Z,16.24
2018-07-12T05:18:59.090Z,16.13
2018-07-12T05:19:58.987Z,16.20
2018-07-12T05:20:58.902Z,16.17
2018-07-12T05:21:58.904Z,16.21
2018-07-12T05:22:58.691Z,16.28
2018-07-12T05:23:58.605Z,16.26
2018-07-12T05:24:58.494Z,16.29
2018-07-12T05:25:58.390Z,16.28
2018-07-12T05:26:58.302Z,16.29
2018-07-12T05:27:58.211Z,16.35
2018-07-12T05:28:58.106Z,16.33
2018-07-12T05:29:58.002Z,16.41
2018-07-12T05:30:57.901Z,16.31
2018-07-12T05:31:57.809Z,16.35
2018-07-12T05:32:57.711Z,16.50
2018-07-12T05:33:57.606Z,16.47
2018-07-12T05:34:57.510Z,16.50
2018-07-12T05:35:57.406Z,16.56
2018-07-12T05:36:57.310Z,16.53
2018-07-12T05:37:57.216Z,16.57
2018-07-12T05:38:57.155Z,16.58
2018-07-12T05:39:57.012Z,16.64
2018-07-12T05:40:56.918Z,16.66
2018-07-12T05:41:56.814Z,16.72
2018-07-12T05:42:56.715Z,16.71
2018-07-12T05:43:56.625Z,16.69
2018-07-12T05:44:56.514Z,16.71
2018-07-12T05:45:56.424Z,16.72
2018-07-12T05:46:56.322Z,16.81
2018-07-12T05:47:56.220Z,16.74
2018-07-12T05:48:56.132Z,16.79
2018-07-12T05:49:56.030Z,16.79
2018-07-12T05:50:55.921Z,16.89
2018-07-12T05:51:55.835Z,16.81
2018-07-12T05:52:55.729Z,16.87
2018-07-12T05:53:55.638Z,16.84
2018-07-12T05:54:55.537Z,16.90
2018-07-12T05:55:55.434Z,16.90
2018-07-12T05:56:55.340Z,16.91
2018-07-12T05:57:55.237Z,16.96
2018-07-12T05:58:55.167Z,17.04
2018-07-12T05:59:55.047Z,17.06
2018-07-12T06:00:54.938Z,17.02
2018-07-12T06:01:54.850Z,17.06
2018-07-12T06:02:54.765Z,17.15
2018-07-12T06:03:54.640Z,17.14
2018-07-12T06:04:54.552Z,17.19
2018-07-12T06:05:54.448Z,17.14
2018-07-12T06:06:54.348Z,17.05
2018-07-12T06:07:54.253Z,17.05
2018-07-12T06:08:54.154Z,17.15
2018-07-12T06:09:54.062Z,17.15
2018-07-12T06:10:53.959Z,17.26
2018-07-12T06:11:53.855Z,17.24
2018-07-12T06:12:53.747Z,17.26
2018-07-12T06:13:53.656Z,17.34
2018-07-12T06:14:53.558Z,17.33
2018-07-12T06:15:53.457Z,17.49
2018-07-12T06:16:53.360Z,17.42
2018-07-12T06:17:53.254Z,17.52
2018-07-12T06:18:53.171Z,17.49
2018-07-12T06:19:53.066Z,17.48
2018-07-12T06:20:52.965Z,17.56
2018-07-12T06:21:52.873Z,17.42
2018-07-12T06:22:52.764Z,17.44
2018-07-12T06:23:52.661Z,17.44
2018-07-12T06:24:52.575Z,17.49
2018-07-12T06:25:52.471Z,17.48
2018-07-12T06:26:52.381Z,17.46
2018-07-12T06:27:52.278Z,17.60
2018-07-12T06:28:52.172Z,17.59
2018-07-12T06:29:52.123Z,17.59
2018-07-12T06:30:51.982Z,17.78
2018-07-12T06:31:51.889Z,17.68
2018-07-12T06:32:51.785Z,17.70
2018-07-12T06:33:51.693Z,17.86
2018-07-12T06:34:51.587Z,17.90
2018-07-12T06:35:51.495Z,17.82
2018-07-12T06:36:51.395Z,17.80
2018-07-12T06:37:51.294Z,17.92
2018-07-12T06:38:51.202Z,17.87
2018-07-12T06:39:51.109Z,17.97
2018-07-12T06:40:51.011Z,18.03
2018-07-12T06:41:50.907Z,18.05
2018-07-12T06:42:50.814Z,17.94
2018-07-12T06:43:50.711Z,17.83
2018-07-12T06:44:50.615Z,17.94
2018-07-12T06:45:50.513Z,17.82
2018-07-12T06:46:50.422Z,17.97
2018-07-12T06:47:50.319Z,17.85
2018-07-12T06:48:50.231Z,17.90
2018-07-12T06:49:50.128Z,17.80
2018-07-12T06:50:50.040Z,17.80
2018-07-12T06:51:49.937Z,17.70
2018-07-12T06:52:49.856Z,17.48
2018-07-12T06:53:49.739Z,17.67
2018-07-12T06:54:49.650Z,17.68
2018-07-12T06:55:49.547Z,17.59
2018-07-12T06:56:49.453Z,17.71
2018-07-12T06:57:49.348Z,17.76
2018-07-12T06:58:49.259Z,17.70
2018-07-12T06:59:49.156Z,17.89
2018-07-12T07:00:49.068Z,17.87
2018-07-12T07:01:48.966Z,17.85
2018-07-12T07:02:48.873Z,17.89
2018-07-12T07:03:48.768Z,17.82
2018-07-12T07:04:48.681Z,17.83
2018-07-12T07:05:48.628Z,17.83
2018-07-12T07:06:48.485Z,17.82
2018-07-12T07:07:48.382Z,17.60
2018-07-12T07:08:48.287Z,17.65
2018-07-12T07:09:48.183Z,17.79
2018-07-12T07:10:48.099Z,17.78
2018-07-12T07:11:47.996Z,17.68
2018-07-12T07:12:47.901Z,17.78
2018-07-12T07:13:47.800Z,17.67
2018-07-12T07:14:47.727Z,17.60
2018-07-12T07:15:47.604Z,17.56
2018-07-12T07:16:47.514Z,17.67
2018-07-12T07:17:47.410Z,17.85
2018-07-12T07:18:47.317Z,17.82
2018-07-12T07:19:47.213Z,17.86
2018-07-12T07:20:47.126Z,17.94
2018-07-12T07:21:47.022Z,17.94
2018-07-12T07:22:46.937Z,17.80
2018-07-12T07:23:46.831Z,17.80
2018-07-12T07:24:46.736Z,17.89
2018-07-12T07:25:46.634Z,17.97
2018-07-12T07:26:46.544Z,18.03
2018-07-12T07:27:46.442Z,17.98
2018-07-12T07:28:46.345Z,17.98
2018-07-12T07:29:46.242Z,18.07
2018-07-12T07:30:46.143Z,18.03
2018-07-12T07:31:46.051Z,18.16
2018-07-12T07:32:45.951Z,18.13
2018-07-12T07:33:45.860Z,18.04
2018-07-12T07:34:45.753Z,18.10
2018-07-12T07:35:45.680Z,17.98
2018-07-12T07:36:45.566Z,17.89
2018-07-12T07:37:45.725Z,17.98
2018-07-12T07:38:45.368Z,18.05
2018-07-12T07:39:45.277Z,18.11
2018-07-12T07:40:45.169Z,18.13
2018-07-12T07:41:45.077Z,18.19
2018-07-12T07:42:44.980Z,18.16
2018-07-12T07:43:44.895Z,18.13
2018-07-12T07:44:44.786Z,18.19
2018-07-12T07:45:44.692Z,18.13
2018-07-12T07:46:44.599Z,18.05
2018-07-12T07:47:44.497Z,18.05
2018-07-12T07:48:44.397Z,18.03
2018-07-12T07:49:44.305Z,17.95
2018-07-12T07:50:44.200Z,18.00
2018-07-12T07:51:44.110Z,18.00
2018-07-12T07:52:44.011Z,17.98
2018-07-12T07:53:43.932Z,18.01
2018-07-12T07:54:43.815Z,18.13
2018-07-12T07:55:43.724Z,18.11
2018-07-12T07:56:43.616Z,18.13
2018-07-12T07:57:43.774Z,18.16
2018-07-12T07:58:43.427Z,18.15
2018-07-12T07:59:43.337Z,18.11
2018-07-12T08:00:43.230Z,18.18
2018-07-12T08:01:43.138Z,18.15
2018-07-12T08:02:43.033Z,18.11
2018-07-12T08:03:42.943Z,18.13
2018-07-12T08:04:42.843Z,18.07
2018-07-12T08:05:42.752Z,18.13
2018-07-12T08:06:42.644Z,18.10
2018-07-12T08:07:42.555Z,18.08
2018-07-12T08:08:42.455Z,18.04
2018-07-12T08:09:42.378Z,18.03
2018-07-12T08:10:42.262Z,18.05
2018-07-12T08:11:42.173Z,18.07
2018-07-12T08:12:42.077Z,18.01
2018-07-12T08:13:41.973Z,18.00
2018-07-12T08:14:41.877Z,18.03
2018-07-12T08:15:41.787Z,17.94
2018-07-12T08:16:41.675Z,17.94
2018-07-12T08:17:41.885Z,17.94
2018-07-12T08:18:41.482Z,17.95
2018-07-12T08:19:41.393Z,17.89
2018-07-12T08:20:41.292Z,18.01
2018-07-12T08:21:41.204Z,17.95
2018-07-12T08:22:41.095Z,17.92
2018-07-12T08:23:41.004Z,17.95
2018-07-12T08:24:40.906Z,18.01
2018-07-12T08:25:40.825Z,18.01
2018-07-12T08:26:40.707Z,17.92
2018-07-12T08:27:40.617Z,18.01
2018-07-12T08:28:40.511Z,17.98
2018-07-12T08:29:40.421Z,18.07
2018-07-12T08:30:40.319Z,18.04
2018-07-12T08:31:40.220Z,18.05
2018-07-12T08:32:40.126Z,18.01
2018-07-12T08:33:40.020Z,18.10
2018-07-12T08:34:39.927Z,18.10
2018-07-12T08:35:39.824Z,17.97
2018-07-12T08:36:39.740Z,17.98
2018-07-12T08:37:39.637Z,18.00
2018-07-12T08:38:39.538Z,17.97
2018-07-12T08:39:39.435Z,17.90
2018-07-12T08:40:39.415Z,17.82
2018-07-12T08:41:39.245Z,17.92
2018-07-12T08:42:39.187Z,17.86
2018-07-12T08:43:39.053Z,17.86
2018-07-12T08:44:38.958Z,17.82
2018-07-12T08:45:38.855Z,17.79
2018-07-12T08:46:38.765Z,17.85
2018-07-12T08:47:38.663Z,17.67
2018-07-12T08:48:38.570Z,17.67
2018-07-12T08:49:38.465Z,17.76
2018-07-12T08:50:38.376Z,17.82
2018-07-12T08:51:38.272Z,17.80
2018-07-12T08:52:38.174Z,17.80
2018-07-12T08:53:38.134Z,17.82
2018-07-12T08:54:37.982Z,17.89
2018-07-12T08:55:37.906Z,17.98
2018-07-12T08:56:37.796Z,17.95
2018-07-12T08:57:37.941Z,17.97
2018-07-12T08:58:37.584Z,17.89
2018-07-12T08:59:37.493Z,17.94
2018-07-12T09:00:37.397Z,18.03
2018-07-12T09:01:37.303Z,18.03
2018-07-12T09:02:37.287Z,18.05
2018-07-12T09:03:37.111Z,18.00
2018-07-12T09:04:37.008Z,18.01
2018-07-12T09:05:36.906Z,17.89
2018-07-12T09:06:36.813Z,17.90
2018-07-12T09:07:36.710Z,18.00
2018-07-12T09:08:36.613Z,18.00
2018-07-12T09:09:36.512Z,17.94
2018-07-12T09:10:36.424Z,17.86
2018-07-12T09:11:36.321Z,17.89
2018-07-12T09:12:36.225Z,17.94
2018-07-12T09:13:36.123Z,17.89
2018-07-12T09:14:36.035Z,17.89
2018-07-12T09:15:35.992Z,17.89
2018-07-12T09:16:35.843Z,17.97
2018-07-12T09:17:35.752Z,17.97
2018-07-12T09:18:35.645Z,17.92
2018-07-12T09:19:35.552Z,17.85
2018-07-12T09:20:35.453Z,17.87
2018-07-12T09:21:35.369Z,17.74
2018-07-12T09:22:35.264Z,17.72
2018-07-12T09:23:35.184Z,17.82
2018-07-12T09:24:35.063Z,17.76
2018-07-12T09:25:34.973Z,17.89
2018-07-12T09:26:34.873Z,17.89
2018-07-12T09:27:34.782Z,17.92
2018-07-12T09:28:34.674Z,17.89
2018-07-12T09:29:34.584Z,18.03
2018-07-12T09:30:34.494Z,18.18
2018-07-12T09:31:34.390Z,18.26
2018-07-12T09:32:34.301Z,18.34
2018-07-12T09:33:34.200Z,18.47
2018-07-12T09:34:34.105Z,18.68
2018-07-12T09:35:34.004Z,18.56
2018-07-12T09:36:33.915Z,18.59
2018-07-12T09:37:33.812Z,18.73
2018-07-12T09:38:33.719Z,18.68
2018-07-12T09:39:33.628Z,18.68
2018-07-12T09:40:33.522Z,18.83
2018-07-12T09:41:33.429Z,19.02
2018-07-12T09:42:33.332Z,18.99
2018-07-12T09:43:33.240Z,19.04
2018-07-12T09:44:33.145Z,18.80
2018-07-12T09:45:33.042Z,18.74
2018-07-12T09:46:32.953Z,18.75
2018-07-12T09:47:32.921Z,18.68
2018-07-12T09:48:32.763Z,18.70
2018-07-12T09:49:32.674Z,18.70
2018-07-12T09:50:32.575Z,18.71
2018-07-12T09:51:32.471Z,18.75
2018-07-12T09:52:32.385Z,18.63
2018-07-12T09:53:32.282Z,18.59
2018-07-12T09:54:32.193Z,18.66
2018-07-12T09:55:32.124Z,18.73
2018-07-12T09:56:32.059Z,18.70
2018-07-12T09:57:31.904Z,18.68
2018-07-12T09:58:31.815Z,18.73
2018-07-12T09:59:31.713Z,18.70
2018-07-12T10:00:31.616Z,18.60
2018-07-12T10:01:31.518Z,18.66
2018-07-12T10:02:31.425Z,18.52
2018-07-12T10:03:31.335Z,18.45
2018-07-12T10:04:31.249Z,18.38
2018-07-12T10:05:31.146Z,18.47
2018-07-12T10:06:31.047Z,18.56
2018-07-12T10:07:30.958Z,18.63
2018-07-12T10:08:30.859Z,18.43
2018-07-12T10:09:30.766Z,18.40
2018-07-12T10:10:30.710Z,18.60
2018-07-12T10:11:30.587Z,18.66
2018-07-12T10:12:30.479Z,18.63
2018-07-12T10:13:30.390Z,18.86
2018-07-12T10:14:30.302Z,18.89
2018-07-12T10:15:30.198Z,18.95
2018-07-12T10:16:30.104Z,18.98
2018-07-12T10:17:30.029Z,18.96
2018-07-12T10:18:29.907Z,19.00
2018-07-12T10:19:29.819Z,19.07
2018-07-12T10:20:29.730Z,19.07
2018-07-12T10:21:29.627Z,19.15
2018-07-12T10:22:29.534Z,19.09
2018-07-12T10:23:29.443Z,18.96
2018-07-12T10:24:29.344Z,18.93
2018-07-12T10:25:29.257Z,18.89
2018-07-12T10:26:29.160Z,18.86
2018-07-12T10:27:29.070Z,19.02
2018-07-12T10:28:28.962Z,18.84
2018-07-12T10:29:28.870Z,19.00
2018-07-12T10:30:28.786Z,19.04
2018-07-12T10:31:28.686Z,18.92
2018-07-12T10:32:28.586Z,18.99
2018-07-12T10:33:28.498Z,18.83
2018-07-12T10:34:28.407Z,18.95
2018-07-12T10:35:28.304Z,18.81
2018-07-12T10:36:28.221Z,19.04
2018-07-12T10:37:28.126Z,18.99
2018-07-12T10:38:28.018Z,19.19
2018-07-12T10:39:27.930Z,19.14
2018-07-12T10:40:27.838Z,19.19
2018-07-12T10:41:27.749Z,19.07
2018-07-12T10:42:27.648Z,18.96
2018-07-12T10:43:27.556Z,18.93
2018-07-12T10:44:27.508Z,19.04
2018-07-12T10:45:27.370Z,19.00
2018-07-12T10:46:27.272Z,19.07
2018-07-12T10:47:27.180Z,19.19
2018-07-12T10:48:27.084Z,19.40
2018-07-12T10:49:26.995Z,19.34
2018-07-12T10:50:26.894Z,19.34
2018-07-12T10:51:26.800Z,19.47
2018-07-12T10:52:26.711Z,19.55
2018-07-12T10:53:26.620Z,19.66
2018-07-12T10:54:26.519Z,19.69
2018-07-12T10:55:26.426Z,19.59
2018-07-12T10:56:26.337Z,19.69
2018-07-12T10:57:26.247Z,19.70
2018-07-12T10:58:26.153Z,19.54
2018-07-12T10:59:26.051Z,19.37
2018-07-12T11:00:25.957Z,19.54
2018-07-12T11:01:25.864Z,19.40
2018-07-12T11:02:25.777Z,19.45
2018-07-12T11:03:25.683Z,19.52
2018-07-12T11:04:25.588Z,19.48
2018-07-12T11:05:25.493Z,19.49
2018-07-12T11:06:25.404Z,19.62
2018-07-12T11:07:25.314Z,19.67
2018-07-12T11:08:25.218Z,19.79
2018-07-12T11:09:25.118Z,19.94
2018-07-12T11:10:25.031Z,20.07
2018-07-12T11:11:24.935Z,20.09
2018-07-12T11:12:24.841Z,20.22
2018-07-12T11:13:24.738Z,20.03
2018-07-12T11:14:24.648Z,20.09
2018-07-12T11:15:24.558Z,20.04
2018-07-12T11:16:24.464Z,19.92
2018-07-12T11:17:24.381Z,19.99
2018-07-12T11:18:24.285Z,20.02
2018-07-12T11:19:24.182Z,20.22
2018-07-12T11:20:24.095Z,20.29
2018-07-12T11:21:24.005Z,20.21
2018-07-12T11:22:23.912Z,20.39
2018-07-12T11:23:23.820Z,20.28
2018-07-12T11:24:23.725Z,20.16
2018-07-12T11:25:23.623Z,20.34
2018-07-12T11:26:23.537Z,20.37
2018-07-12T11:27:23.449Z,20.58
2018-07-12T11:28:23.352Z,20.63
2018-07-12T11:29:23.262Z,20.60
2018-07-12T11:30:23.192Z,20.81
2018-07-12T11:31:23.067Z,20.82
2018-07-12T11:32:22.978Z,20.84
2018-07-12T11:33:22.890Z,20.99
2018-07-12T11:34:22.793Z,20.77
2018-07-12T11:35:22.702Z,20.87
2018-07-12T11:36:22.651Z,21.03
2018-07-12T11:37:22.777Z,20.99
2018-07-12T11:38:22.436Z,20.99
2018-07-12T11:39:22.363Z,21.06
2018-07-12T11:40:22.237Z,21.05
2018-07-12T11:41:22.148Z,21.11
2018-07-12T11:42:22.058Z,21.03
2018-07-12T11:43:21.969Z,21.02
2018-07-12T11:44:21.872Z,20.88
2018-07-12T11:45:21.782Z,20.84
2018-07-12T11:46:21.693Z,20.84
2018-07-12T11:47:21.610Z,20.63
2018-07-12T11:48:21.515Z,20.52
2018-07-12T11:49:21.424Z,20.60
2018-07-12T11:50:21.331Z,20.50
2018-07-12T11:51:21.227Z,20.52
2018-07-12T11:52:21.142Z,20.60
2018-07-12T11:53:21.048Z,20.72
2018-07-12T11:54:20.956Z,20.75
2018-07-12T11:55:20.868Z,20.85
2018-07-12T11:56:20.771Z,20.95
2018-07-12T11:57:20.680Z,21.03
2018-07-12T11:58:20.596Z,21.21
2018-07-12T11:59:20.504Z,21.51
2018-07-12T12:00:20.399Z,21.55
2018-07-12T12:01:20.321Z,21.45
2018-07-12T12:02:20.216Z,21.45
2018-07-12T12:03:20.123Z,21.43
2018-07-12T12:04:20.035Z,21.51
2018-07-12T12:05:19.946Z,21.69
2018-07-12T12:06:19.853Z,21.69
2018-07-12T12:07:19.761Z,21.76
2018-07-12T12:08:19.675Z,21.98
2018-07-12T12:09:19.585Z,22.15
2018-07-12T12:10:19.491Z,22.41
2018-07-12T12:11:19.400Z,22.39
2018-07-12T12:12:19.305Z,22.33
2018-07-12T12:13:19.216Z,22.29
2018-07-12T12:14:19.129Z,22.28
2018-07-12T12:15:19.040Z,22.17
2018-07-12T12:16:18.944Z,21.83
2018-07-12T12:17:18.842Z,21.64
2018-07-12T12:18:18.759Z,21.58
2018-07-12T12:19:18.671Z,21.61
2018-07-12T12:20:18.570Z,21.43
2018-07-12T12:21:18.480Z,21.51
2018-07-12T12:22:18.385Z,21.33
2018-07-12T12:23:18.294Z,21.00
2018-07-12T12:24:18.206Z,20.84
2018-07-12T12:25:18.116Z,20.90
2018-07-12T12:26:18.028Z,20.80
2018-07-12T12:27:17.936Z,20.67
2018-07-12T12:28:17.843Z,20.56
2018-07-12T12:29:17.751Z,20.39
2018-07-12T12:30:17.663Z,20.41
2018-07-12T12:31:17.570Z,20.41
2018-07-12T12:32:17.479Z,20.34
2018-07-12T12:33:17.385Z,20.39
2018-07-12T12:34:17.297Z,20.47
2018-07-12T12:35:17.206Z,20.50
2018-07-12T12:36:17.110Z,20.58
2018-07-12T12:37:17.020Z,20.62
2018-07-12T12:38:16.924Z,20.66
2018-07-12T12:39:16.832Z,20.74
2018-07-12T12:40:16.747Z,20.78
2018-07-12T12:41:16.653Z,20.78
2018-07-12T12:42:16.561Z,20.81
2018-07-12T12:43:16.470Z,20.74
2018-07-12T12:44:16.362Z,20.84
2018-07-12T12:45:16.283Z,20.88
2018-07-12T12:46:16.188Z,20.74
2018-07-12T12:47:16.097Z,20.77
2018-07-12T12:48:16.001Z,20.80
2018-07-12T12:49:15.909Z,20.81
2018-07-12T12:50:15.821Z,20.85
2018-07-12T12:51:15.714Z,21.00